Lake Oke Center current weather conditions

sailwx.info

Wind from 142 at 6 knots gusting 8

Air temperature 26.2° C
Dewpoint 24.2° C
Water temperature -7999.0° C

Last reported at 2020-Sep-25 12:45 UTC.
Time now 2020-Sep-25 13:25 UTC

Location: N 26°54' W 080°47'.
View on Google Maps.

See reports from other nearby stations

  
Tides and Currents Weather Stations Pressure Air Temp Water Temp Dewpoint Dewpoint Depression Visibility Wind Speed Wind Dir Waves Ship Positions
date/time (UTC)wind fromknots sea level pressurealtimeterstation pressurevisibilityair tempwater tempwave heightnotes
2020-Sep-25 12:45 142 6 gusting 8 26.2-7999.0
2020-Sep-25 12:30 141 7 gusting 8 26.1-7999.0
2020-Sep-25 12:15 143 6 gusting 8 26.1-7999.0
2020-Sep-25 11:45 152 4 gusting 5 26.1-7999.0
2020-Sep-25 11:30 147 5 gusting 6 26.1-7999.0
2020-Sep-25 11:15 133 5 gusting 6 26.1-7999.0
2020-Sep-25 10:45 120 4 gusting 5 26.2-7999.0
2020-Sep-25 10:30 114 4 gusting 5 26.1-7999.0
2020-Sep-25 10:15 109 5 gusting 6 26.1-7999.0
2020-Sep-25 10:00 121 5 gusting 5 26.0-7999.0
2020-Sep-25 09:45 131 4 gusting 5 26.1-7999.0
2020-Sep-25 09:30 132 3 gusting 4 26.0-7999.0
2020-Sep-25 09:15 132 3 gusting 4 26.1-7999.0
2020-Sep-25 09:00 129 3 gusting 4 26.1-7999.0
2020-Sep-25 08:45 122 3 gusting 4 26.1-7999.0
2020-Sep-25 08:30 123 3 gusting 4 26.1-7999.0
2020-Sep-25 08:15 147 2 gusting 4 25.9-7999.0
2020-Sep-25 07:45 180 2 gusting 3 25.6-7999.0
2020-Sep-25 07:30 185 4 gusting 5 25.6-7999.0
2020-Sep-25 07:15 177 4 gusting 5 25.5-7999.0
2020-Sep-25 06:45 142 8 gusting 10 26.0-7999.0
2020-Sep-25 06:30 136 9 gusting 10 26.4-7999.0
2020-Sep-25 06:15 121 6 gusting 8 26.3-7999.0
2020-Sep-25 06:00 097 6 gusting 7 26.3-7999.0
2020-Sep-25 05:45 094 5 gusting 6 26.3-7999.0
2020-Sep-25 05:30 087 4 gusting 5 26.3-7999.0
2020-Sep-25 05:15 095 4 gusting 5 26.4-7999.0
2020-Sep-25 04:45 112 5 gusting 6 26.4-7999.0
2020-Sep-25 04:30 104 6 gusting 7 26.3-7999.0
2020-Sep-25 04:15 096 5 gusting 6 26.2-7999.0
2020-Sep-25 04:00 079 5 gusting 6 26.3-7999.0
2020-Sep-25 03:45 089 6 gusting 6 26.4-7999.0
2020-Sep-25 03:30 093 6 gusting 7 26.4-7999.0
2020-Sep-25 03:15 090 6 gusting 7 26.4-7999.0
2020-Sep-25 02:45 095 5 gusting 6 26.3-7999.0
2020-Sep-25 02:30 098 5 gusting 5 26.2-7999.0
2020-Sep-25 02:15 095 5 gusting 6 26.3-7999.0
2020-Sep-25 01:45 080 6 gusting 7 26.1-7999.0
2020-Sep-25 01:30 065 7 gusting 8 26.0-7999.0
2020-Sep-25 01:15 061 6 gusting 8 25.7-7999.0
2020-Sep-25 00:45 051 9 gusting 11 25.6-7999.0
2020-Sep-25 00:30 050 9 gusting 11 25.6-7999.0
2020-Sep-25 00:15 055 9 gusting 11 25.3-7999.0
2020-Sep-25 00:00 064 9 gusting 10 25.6-7999.0
2020-Sep-24 23:45 067 9 gusting 11 25.5-7999.0
2020-Sep-24 23:30 059 11 gusting 14 25.1-7999.0
2020-Sep-24 22:30 141 1 gusting 3 25.5-7999.0
2020-Sep-24 22:15 208 1 gusting 3 25.4-7999.0
2020-Sep-24 19:00 100 9 gusting 12 26.3-7999.0
2020-Sep-24 18:45 079 10 gusting 13 26.8-7999.0
2020-Sep-24 18:15 076 8 gusting 9 26.9-7999.0
2020-Sep-24 17:00 114 10 gusting 12 26.2-7999.0
2020-Sep-24 16:30 139 14 gusting 16 27.1-7999.0
2020-Sep-24 16:15 150 12 gusting 14 27.3-7999.0
2020-Sep-24 15:45 118 6 gusting 7 27.6-7999.0
2020-Sep-24 15:30 117 7 gusting 9 27.6-7999.0
2020-Sep-24 15:15 125 9 gusting 10 27.6-7999.0
2020-Sep-24 14:45 121 8 gusting 11 27.3-7999.0
2020-Sep-24 14:30 103 8 gusting 9 26.8-7999.0
2020-Sep-24 13:30 093 10 gusting 12 25.9-7999.0
2020-Sep-24 13:00 098 12 gusting 14 25.6-7999.0
2020-Sep-24 12:45 099 12 gusting 15 25.3-7999.0
2020-Sep-24 06:45 118 11 gusting 13 26.1-7999.0
2020-Sep-24 06:15 117 10 gusting 12 26.1-7999.0
2020-Sep-24 05:45 115 10 gusting 11 26.1-7999.0
2020-Sep-24 05:30 114 10 gusting 12 26.2-7999.0
2020-Sep-24 04:30 109 8 gusting 10 26.2-7999.0
2020-Sep-24 04:15 109 8 gusting 10 26.3-7999.0
2020-Sep-24 03:45 107 9 gusting 10 26.3-7999.0
2020-Sep-24 03:30 103 9 gusting 10 26.5-7999.0
2020-Sep-24 03:15 105 9 gusting 10 26.5-7999.0
2020-Sep-24 02:45 100 8 gusting 9 26.5-7999.0
2020-Sep-24 02:30 102 8 gusting 10 26.5-7999.0
2020-Sep-24 02:15 106 8 gusting 9 26.6-7999.0
2020-Sep-24 01:45 109 8 gusting 9 26.5-7999.0
2020-Sep-24 01:30 105 9 gusting 11 26.6-7999.0
2020-Sep-24 01:15 102 9 gusting 10 26.6-7999.0
2020-Sep-24 00:45 092 10 gusting 11 26.6-7999.0
2020-Sep-24 00:30 091 10 gusting 13 26.6-7999.0
2020-Sep-24 00:15 092 11 gusting 13 26.8-7999.0
2020-Sep-23 23:45 090 11 gusting 13 26.9-7999.0
2020-Sep-23 23:30 091 10 gusting 12 27.0-7999.0
2020-Sep-23 23:15 099 10 gusting 12 27.1-7999.0
2020-Sep-23 22:45 101 11 gusting 13 27.3-7999.0
2020-Sep-23 22:30 105 11 gusting 13 27.5-7999.0
2020-Sep-23 22:15 109 11 gusting 13 27.6-7999.0
2020-Sep-23 21:45 103 10 gusting 11 27.8-7999.0
2020-Sep-23 21:30 100 10 gusting 11 27.8-7999.0
2020-Sep-23 21:15 106 10 gusting 12 27.8-7999.0
2020-Sep-23 20:45 122 11 gusting 14 28.0-7999.0
2020-Sep-23 20:30 107 10 gusting 13 28.1-7999.0
2020-Sep-23 20:15 105 10 gusting 11 28.4-7999.0
2020-Sep-23 19:45 108 8 gusting 10 28.4-7999.0
2020-Sep-23 19:30 106 8 gusting 10 28.5-7999.0
2020-Sep-23 19:15 102 8 gusting 10 28.5-7999.0
2020-Sep-23 18:45 099 9 gusting 11 28.5-7999.0
2020-Sep-23 18:30 101 8 gusting 10 28.5-7999.0
2020-Sep-23 18:15 082 5 gusting 10 28.6-7999.0
2020-Sep-23 17:45 067 4 gusting 5 28.0-7999.0
2020-Sep-23 17:30 069 4 gusting 6 27.8-7999.0
2020-Sep-23 17:15 073 4 gusting 7 27.7-7999.0
2020-Sep-23 16:45 080 5 gusting 7 27.4-7999.0
2020-Sep-23 16:30 086 5 gusting 7 27.4-7999.0
2020-Sep-23 16:15 076 5 gusting 6 27.4-7999.0
2020-Sep-23 15:45 068 4 gusting 5 27.3-7999.0
2020-Sep-23 15:30 063 5 gusting 5 26.8-7999.0
2020-Sep-23 15:15 063 5 gusting 6 26.8-7999.0
2020-Sep-23 15:00 067 6 gusting 7 26.6-7999.0
2020-Sep-23 14:45 062 7 gusting 8 26.5-7999.0
2020-Sep-23 14:30 061 7 gusting 9 26.4-7999.0
2020-Sep-23 14:15 067 7 gusting 8 26.4-7999.0
2020-Sep-23 13:45 073 7 gusting 8 26.3-7999.0
2020-Sep-23 13:30 071 7 gusting 9 26.2-7999.0
2020-Sep-23 13:15 070 8 gusting 9 26.2-7999.0